sensor_id;sensor_type;location;lat;lon;timestamp;P1;durP1;ratioP1;P2;durP2;ratioP2
4186;SDS011;2107;52.306;10.484;2024-02-16T00:02:07;0.00;;;0.00;;
4186;SDS011;2107;52.306;10.484;2024-02-16T00:04:34;0.00;;;0.00;;
4186;SDS011;2107;52.306;10.484;2024-02-16T00:07:01;0.00;;;0.00;;
4186;SDS011;2107;52.306;10.484;2024-02-16T00:09:29;0.00;;;0.00;;
4186;SDS011;2107;52.306;10.484;2024-02-16T00:11:58;0.00;;;0.00;;
4186;SDS011;2107;52.306;10.484;2024-02-16T00:14:25;0.00;;;0.00;;
4186;SDS011;2107;52.306;10.484;2024-02-16T00:16:52;0.00;;;0.00;;
4186;SDS011;2107;52.306;10.484;2024-02-16T00:19:18;0.00;;;0.00;;
4186;SDS011;2107;52.306;10.484;2024-02-16T00:21:46;0.00;;;0.00;;
4186;SDS011;2107;52.306;10.484;2024-02-16T00:24:12;0.00;;;0.00;;
4186;SDS011;2107;52.306;10.484;2024-02-16T00:26:41;0.00;;;0.00;;
4186;SDS011;2107;52.306;10.484;2024-02-16T00:29:10;0.00;;;0.00;;
4186;SDS011;2107;52.306;10.484;2024-02-16T00:31:37;0.00;;;0.00;;
4186;SDS011;2107;52.306;10.484;2024-02-16T00:34:04;0.00;;;0.00;;
4186;SDS011;2107;52.306;10.484;2024-02-16T00:36:31;0.00;;;0.00;;
4186;SDS011;2107;52.306;10.484;2024-02-16T00:38:59;0.00;;;0.00;;
4186;SDS011;2107;52.306;10.484;2024-02-16T00:41:26;0.00;;;0.00;;
4186;SDS011;2107;52.306;10.484;2024-02-16T00:43:54;0.00;;;0.00;;
4186;SDS011;2107;52.306;10.484;2024-02-16T00:46:22;0.00;;;0.00;;
4186;SDS011;2107;52.306;10.484;2024-02-16T00:48:49;0.00;;;0.00;;
4186;SDS011;2107;52.306;10.484;2024-02-16T00:51:15;0.00;;;0.00;;
4186;SDS011;2107;52.306;10.484;2024-02-16T00:53:42;0.00;;;0.00;;
4186;SDS011;2107;52.306;10.484;2024-02-16T00:56:09;0.00;;;0.00;;
4186;SDS011;2107;52.306;10.484;2024-02-16T00:58:36;0.00;;;0.00;;
4186;SDS011;2107;52.306;10.484;2024-02-16T01:01:08;0.10;;;0.10;;
4186;SDS011;2107;52.306;10.484;2024-02-16T01:03:36;0.10;;;0.10;;
4186;SDS011;2107;52.306;10.484;2024-02-16T01:06:03;0.10;;;0.10;;
4186;SDS011;2107;52.306;10.484;2024-02-16T01:08:31;0.10;;;0.10;;
4186;SDS011;2107;52.306;10.484;2024-02-16T01:10:58;0.10;;;0.10;;
4186;SDS011;2107;52.306;10.484;2024-02-16T01:13:25;0.10;;;0.10;;
4186;SDS011;2107;52.306;10.484;2024-02-16T01:15:52;0.10;;;0.10;;
4186;SDS011;2107;52.306;10.484;2024-02-16T01:18:20;0.10;;;0.10;;
4186;SDS011;2107;52.306;10.484;2024-02-16T01:20:47;0.10;;;0.10;;
4186;SDS011;2107;52.306;10.484;2024-02-16T01:23:14;0.10;;;0.10;;
4186;SDS011;2107;52.306;10.484;2024-02-16T01:25:40;0.10;;;0.10;;
4186;SDS011;2107;52.306;10.484;2024-02-16T01:28:07;0.10;;;0.10;;
4186;SDS011;2107;52.306;10.484;2024-02-16T01:30:34;0.10;;;0.10;;
4186;SDS011;2107;52.306;10.484;2024-02-16T01:33:01;0.10;;;0.10;;
4186;SDS011;2107;52.306;10.484;2024-02-16T01:35:30;0.10;;;0.10;;
4186;SDS011;2107;52.306;10.484;2024-02-16T01:37:57;0.10;;;0.10;;
4186;SDS011;2107;52.306;10.484;2024-02-16T01:40:24;0.10;;;0.10;;
4186;SDS011;2107;52.306;10.484;2024-02-16T01:42:51;0.10;;;0.10;;
4186;SDS011;2107;52.306;10.484;2024-02-16T01:45:18;0.10;;;0.10;;
4186;SDS011;2107;52.306;10.484;2024-02-16T01:47:45;0.10;;;0.10;;
4186;SDS011;2107;52.306;10.484;2024-02-16T01:50:15;0.00;;;0.00;;
4186;SDS011;2107;52.306;10.484;2024-02-16T01:52:45;0.10;;;0.10;;
4186;SDS011;2107;52.306;10.484;2024-02-16T01:55:13;0.00;;;0.00;;
4186;SDS011;2107;52.306;10.484;2024-02-16T01:57:42;0.00;;;0.00;;
4186;SDS011;2107;52.306;10.484;2024-02-16T02:00:10;0.00;;;0.00;;
4186;SDS011;2107;52.306;10.484;2024-02-16T02:02:39;0.00;;;0.00;;
4186;SDS011;2107;52.306;10.484;2024-02-16T02:05:07;0.00;;;0.00;;
4186;SDS011;2107;52.306;10.484;2024-02-16T02:07:34;0.10;;;0.10;;
4186;SDS011;2107;52.306;10.484;2024-02-16T02:10:02;0.00;;;0.00;;
4186;SDS011;2107;52.306;10.484;2024-02-16T02:12:29;0.00;;;0.00;;
4186;SDS011;2107;52.306;10.484;2024-02-16T02:14:56;0.10;;;0.10;;
4186;SDS011;2107;52.306;10.484;2024-02-16T02:17:23;0.10;;;0.10;;
4186;SDS011;2107;52.306;10.484;2024-02-16T02:19:50;0.00;;;0.00;;
4186;SDS011;2107;52.306;10.484;2024-02-16T02:22:18;0.00;;;0.00;;
4186;SDS011;2107;52.306;10.484;2024-02-16T02:24:46;0.10;;;0.10;;
4186;SDS011;2107;52.306;10.484;2024-02-16T02:27:14;0.00;;;0.00;;
4186;SDS011;2107;52.306;10.484;2024-02-16T02:29:41;0.00;;;0.00;;
4186;SDS011;2107;52.306;10.484;2024-02-16T02:32:09;0.00;;;0.00;;
4186;SDS011;2107;52.306;10.484;2024-02-16T02:34:37;0.00;;;0.00;;
4186;SDS011;2107;52.306;10.484;2024-02-16T02:37:04;0.00;;;0.00;;
4186;SDS011;2107;52.306;10.484;2024-02-16T02:39:32;0.00;;;0.00;;
4186;SDS011;2107;52.306;10.484;2024-02-16T02:42:00;0.00;;;0.00;;
4186;SDS011;2107;52.306;10.484;2024-02-16T02:44:28;0.00;;;0.00;;
4186;SDS011;2107;52.306;10.484;2024-02-16T02:46:56;0.00;;;0.00;;
4186;SDS011;2107;52.306;10.484;2024-02-16T02:49:23;0.00;;;0.00;;
4186;SDS011;2107;52.306;10.484;2024-02-16T02:51:50;0.00;;;0.00;;
4186;SDS011;2107;52.306;10.484;2024-02-16T02:54:16;0.00;;;0.00;;
4186;SDS011;2107;52.306;10.484;2024-02-16T02:56:45;0.00;;;0.00;;
4186;SDS011;2107;52.306;10.484;2024-02-16T02:59:11;0.00;;;0.00;;
4186;SDS011;2107;52.306;10.484;2024-02-16T03:01:38;0.00;;;0.00;;
4186;SDS011;2107;52.306;10.484;2024-02-16T03:04:05;0.00;;;0.00;;
4186;SDS011;2107;52.306;10.484;2024-02-16T03:06:32;0.00;;;0.00;;
4186;SDS011;2107;52.306;10.484;2024-02-16T03:08:59;0.00;;;0.00;;
4186;SDS011;2107;52.306;10.484;2024-02-16T03:11:26;0.00;;;0.00;;
4186;SDS011;2107;52.306;10.484;2024-02-16T03:13:54;0.00;;;0.00;;
4186;SDS011;2107;52.306;10.484;2024-02-16T03:16:21;0.10;;;0.10;;
4186;SDS011;2107;52.306;10.484;2024-02-16T03:18:48;0.00;;;0.00;;
4186;SDS011;2107;52.306;10.484;2024-02-16T03:21:14;0.10;;;0.10;;
4186;SDS011;2107;52.306;10.484;2024-02-16T03:23:42;0.00;;;0.00;;
4186;SDS011;2107;52.306;10.484;2024-02-16T03:26:13;0.00;;;0.00;;
4186;SDS011;2107;52.306;10.484;2024-02-16T03:28:41;0.00;;;0.00;;
4186;SDS011;2107;52.306;10.484;2024-02-16T03:31:15;0.03;;;0.03;;
4186;SDS011;2107;52.306;10.484;2024-02-16T03:33:43;0.00;;;0.00;;
4186;SDS011;2107;52.306;10.484;2024-02-16T03:36:10;0.00;;;0.00;;
4186;SDS011;2107;52.306;10.484;2024-02-16T03:38:40;0.00;;;0.00;;
4186;SDS011;2107;52.306;10.484;2024-02-16T03:41:07;0.00;;;0.00;;
4186;SDS011;2107;52.306;10.484;2024-02-16T03:43:37;0.00;;;0.00;;
4186;SDS011;2107;52.306;10.484;2024-02-16T03:46:04;0.00;;;0.00;;
4186;SDS011;2107;52.306;10.484;2024-02-16T03:48:32;0.00;;;0.00;;
4186;SDS011;2107;52.306;10.484;2024-02-16T03:50:59;0.00;;;0.00;;
4186;SDS011;2107;52.306;10.484;2024-02-16T03:53:28;0.00;;;0.00;;
4186;SDS011;2107;52.306;10.484;2024-02-16T03:55:55;0.00;;;0.00;;
4186;SDS011;2107;52.306;10.484;2024-02-16T03:58:22;0.00;;;0.00;;
4186;SDS011;2107;52.306;10.484;2024-02-16T04:00:49;0.00;;;0.00;;
4186;SDS011;2107;52.306;10.484;2024-02-16T04:03:17;0.00;;;0.00;;
4186;SDS011;2107;52.306;10.484;2024-02-16T04:05:46;0.00;;;0.00;;
4186;SDS011;2107;52.306;10.484;2024-02-16T04:08:13;0.00;;;0.00;;
4186;SDS011;2107;52.306;10.484;2024-02-16T04:10:40;0.00;;;0.00;;
4186;SDS011;2107;52.306;10.484;2024-02-16T04:13:06;0.00;;;0.00;;
4186;SDS011;2107;52.306;10.484;2024-02-16T04:15:33;0.00;;;0.00;;
4186;SDS011;2107;52.306;10.484;2024-02-16T04:18:00;0.00;;;0.00;;
4186;SDS011;2107;52.306;10.484;2024-02-16T04:20:27;0.00;;;0.00;;
4186;SDS011;2107;52.306;10.484;2024-02-16T04:22:55;0.10;;;0.10;;
4186;SDS011;2107;52.306;10.484;2024-02-16T04:25:22;0.00;;;0.00;;
4186;SDS011;2107;52.306;10.484;2024-02-16T04:27:49;0.00;;;0.00;;
4186;SDS011;2107;52.306;10.484;2024-02-16T04:30:15;0.00;;;0.00;;
4186;SDS011;2107;52.306;10.484;2024-02-16T04:32:41;0.00;;;0.00;;
4186;SDS011;2107;52.306;10.484;2024-02-16T04:35:08;0.00;;;0.00;;
4186;SDS011;2107;52.306;10.484;2024-02-16T04:37:37;0.00;;;0.00;;
4186;SDS011;2107;52.306;10.484;2024-02-16T04:40:06;0.00;;;0.00;;
4186;SDS011;2107;52.306;10.484;2024-02-16T04:42:37;0.00;;;0.00;;
4186;SDS011;2107;52.306;10.484;2024-02-16T04:45:05;0.00;;;0.00;;
4186;SDS011;2107;52.306;10.484;2024-02-16T04:47:33;0.00;;;0.00;;
4186;SDS011;2107;52.306;10.484;2024-02-16T04:50:00;0.00;;;0.00;;
4186;SDS011;2107;52.306;10.484;2024-02-16T04:52:28;0.00;;;0.00;;
4186;SDS011;2107;52.306;10.484;2024-02-16T04:54:55;0.00;;;0.00;;
4186;SDS011;2107;52.306;10.484;2024-02-16T04:57:23;0.00;;;0.00;;
4186;SDS011;2107;52.306;10.484;2024-02-16T04:59:49;0.00;;;0.00;;
4186;SDS011;2107;52.306;10.484;2024-02-16T05:02:16;0.00;;;0.00;;
4186;SDS011;2107;52.306;10.484;2024-02-16T05:04:43;0.00;;;0.00;;
4186;SDS011;2107;52.306;10.484;2024-02-16T05:07:10;0.00;;;0.00;;
4186;SDS011;2107;52.306;10.484;2024-02-16T05:09:37;0.00;;;0.00;;
4186;SDS011;2107;52.306;10.484;2024-02-16T05:12:05;0.00;;;0.00;;
4186;SDS011;2107;52.306;10.484;2024-02-16T05:14:35;0.00;;;0.00;;
4186;SDS011;2107;52.306;10.484;2024-02-16T05:17:01;0.10;;;0.10;;
4186;SDS011;2107;52.306;10.484;2024-02-16T05:19:31;0.10;;;0.10;;
4186;SDS011;2107;52.306;10.484;2024-02-16T05:21:59;0.20;;;0.20;;
4186;SDS011;2107;52.306;10.484;2024-02-16T05:24:26;0.20;;;0.20;;
4186;SDS011;2107;52.306;10.484;2024-02-16T05:26:52;0.20;;;0.20;;
4186;SDS011;2107;52.306;10.484;2024-02-16T05:29:20;0.20;;;0.20;;
4186;SDS011;2107;52.306;10.484;2024-02-16T05:31:51;0.20;;;0.20;;
4186;SDS011;2107;52.306;10.484;2024-02-16T05:34:18;0.20;;;0.20;;
4186;SDS011;2107;52.306;10.484;2024-02-16T05:36:45;0.20;;;0.20;;
4186;SDS011;2107;52.306;10.484;2024-02-16T05:39:12;0.20;;;0.20;;
4186;SDS011;2107;52.306;10.484;2024-02-16T05:41:51;0.20;;;0.20;;
4186;SDS011;2107;52.306;10.484;2024-02-16T05:44:18;0.20;;;0.20;;
4186;SDS011;2107;52.306;10.484;2024-02-16T05:46:45;0.20;;;0.20;;
4186;SDS011;2107;52.306;10.484;2024-02-16T05:49:14;0.20;;;0.20;;
4186;SDS011;2107;52.306;10.484;2024-02-16T05:51:41;0.30;;;0.30;;
4186;SDS011;2107;52.306;10.484;2024-02-16T05:54:25;0.30;;;0.30;;
4186;SDS011;2107;52.306;10.484;2024-02-16T05:56:52;0.30;;;0.30;;
4186;SDS011;2107;52.306;10.484;2024-02-16T05:59:19;0.20;;;0.20;;
4186;SDS011;2107;52.306;10.484;2024-02-16T06:01:47;0.30;;;0.30;;
4186;SDS011;2107;52.306;10.484;2024-02-16T06:04:15;0.20;;;0.20;;
4186;SDS011;2107;52.306;10.484;2024-02-16T06:06:42;0.20;;;0.20;;
4186;SDS011;2107;52.306;10.484;2024-02-16T06:09:09;0.20;;;0.20;;
4186;SDS011;2107;52.306;10.484;2024-02-16T06:11:36;0.20;;;0.20;;
4186;SDS011;2107;52.306;10.484;2024-02-16T06:14:03;0.20;;;0.20;;
4186;SDS011;2107;52.306;10.484;2024-02-16T06:16:30;0.50;;;0.50;;
4186;SDS011;2107;52.306;10.484;2024-02-16T06:18:57;0.30;;;0.30;;
4186;SDS011;2107;52.306;10.484;2024-02-16T06:21:25;0.40;;;0.40;;
4186;SDS011;2107;52.306;10.484;2024-02-16T06:23:52;0.40;;;0.40;;
4186;SDS011;2107;52.306;10.484;2024-02-16T06:26:19;0.50;;;0.50;;
4186;SDS011;2107;52.306;10.484;2024-02-16T06:28:46;0.40;;;0.40;;
4186;SDS011;2107;52.306;10.484;2024-02-16T06:31:13;0.50;;;0.50;;
4186;SDS011;2107;52.306;10.484;2024-02-16T06:33:40;0.30;;;0.30;;
4186;SDS011;2107;52.306;10.484;2024-02-16T06:36:07;0.40;;;0.40;;
4186;SDS011;2107;52.306;10.484;2024-02-16T06:38:36;0.30;;;0.30;;
4186;SDS011;2107;52.306;10.484;2024-02-16T06:41:03;0.30;;;0.30;;
4186;SDS011;2107;52.306;10.484;2024-02-16T06:43:30;0.30;;;0.30;;
4186;SDS011;2107;52.306;10.484;2024-02-16T06:45:57;0.30;;;0.30;;
4186;SDS011;2107;52.306;10.484;2024-02-16T06:48:24;0.40;;;0.40;;
4186;SDS011;2107;52.306;10.484;2024-02-16T06:50:51;0.50;;;0.50;;
4186;SDS011;2107;52.306;10.484;2024-02-16T06:53:19;0.20;;;0.20;;
4186;SDS011;2107;52.306;10.484;2024-02-16T06:55:47;0.20;;;0.20;;
4186;SDS011;2107;52.306;10.484;2024-02-16T06:58:14;0.30;;;0.30;;
4186;SDS011;2107;52.306;10.484;2024-02-16T07:00:40;0.30;;;0.30;;
4186;SDS011;2107;52.306;10.484;2024-02-16T07:03:08;0.30;;;0.30;;
4186;SDS011;2107;52.306;10.484;2024-02-16T07:05:35;0.30;;;0.30;;
4186;SDS011;2107;52.306;10.484;2024-02-16T07:08:02;0.30;;;0.30;;
4186;SDS011;2107;52.306;10.484;2024-02-16T07:10:31;0.30;;;0.30;;
4186;SDS011;2107;52.306;10.484;2024-02-16T07:12:59;0.20;;;0.20;;
4186;SDS011;2107;52.306;10.484;2024-02-16T07:15:26;0.30;;;0.30;;
4186;SDS011;2107;52.306;10.484;2024-02-16T07:17:53;0.20;;;0.20;;
4186;SDS011;2107;52.306;10.484;2024-02-16T07:20:20;0.30;;;0.30;;
4186;SDS011;2107;52.306;10.484;2024-02-16T07:22:47;0.30;;;0.30;;
4186;SDS011;2107;52.306;10.484;2024-02-16T07:25:16;0.40;;;0.40;;
4186;SDS011;2107;52.306;10.484;2024-02-16T07:27:43;0.40;;;0.40;;
4186;SDS011;2107;52.306;10.484;2024-02-16T07:30:12;0.40;;;0.40;;
4186;SDS011;2107;52.306;10.484;2024-02-16T07:32:39;0.50;;;0.50;;
4186;SDS011;2107;52.306;10.484;2024-02-16T07:35:06;0.40;;;0.40;;
4186;SDS011;2107;52.306;10.484;2024-02-16T07:37:35;0.50;;;0.50;;
4186;SDS011;2107;52.306;10.484;2024-02-16T07:40:02;0.43;;;0.43;;
4186;SDS011;2107;52.306;10.484;2024-02-16T07:42:31;0.40;;;0.40;;
4186;SDS011;2107;52.306;10.484;2024-02-16T07:44:58;0.40;;;0.40;;
4186;SDS011;2107;52.306;10.484;2024-02-16T07:47:26;0.30;;;0.30;;
4186;SDS011;2107;52.306;10.484;2024-02-16T07:49:53;0.50;;;0.50;;
4186;SDS011;2107;52.306;10.484;2024-02-16T07:52:20;0.30;;;0.30;;
4186;SDS011;2107;52.306;10.484;2024-02-16T07:54:47;0.30;;;0.30;;
4186;SDS011;2107;52.306;10.484;2024-02-16T07:57:16;0.40;;;0.40;;
4186;SDS011;2107;52.306;10.484;2024-02-16T07:59:43;0.30;;;0.30;;
4186;SDS011;2107;52.306;10.484;2024-02-16T08:02:10;0.40;;;0.40;;
4186;SDS011;2107;52.306;10.484;2024-02-16T08:04:41;0.33;;;0.33;;
4186;SDS011;2107;52.306;10.484;2024-02-16T08:07:09;0.30;;;0.30;;
4186;SDS011;2107;52.306;10.484;2024-02-16T08:09:36;0.30;;;0.30;;
4186;SDS011;2107;52.306;10.484;2024-02-16T08:12:03;0.40;;;0.40;;
4186;SDS011;2107;52.306;10.484;2024-02-16T08:14:31;0.30;;;0.30;;
4186;SDS011;2107;52.306;10.484;2024-02-16T08:16:58;0.30;;;0.30;;
4186;SDS011;2107;52.306;10.484;2024-02-16T08:19:26;0.40;;;0.40;;
4186;SDS011;2107;52.306;10.484;2024-02-16T08:22:00;0.30;;;0.30;;
4186;SDS011;2107;52.306;10.484;2024-02-16T08:24:28;0.33;;;0.33;;
4186;SDS011;2107;52.306;10.484;2024-02-16T08:26:55;0.30;;;0.30;;
4186;SDS011;2107;52.306;10.484;2024-02-16T08:29:22;0.30;;;0.30;;
4186;SDS011;2107;52.306;10.484;2024-02-16T08:31:50;0.30;;;0.30;;
4186;SDS011;2107;52.306;10.484;2024-02-16T08:34:17;0.30;;;0.30;;
4186;SDS011;2107;52.306;10.484;2024-02-16T08:36:44;0.30;;;0.30;;
4186;SDS011;2107;52.306;10.484;2024-02-16T08:39:13;0.30;;;0.30;;
4186;SDS011;2107;52.306;10.484;2024-02-16T08:41:41;0.30;;;0.30;;
4186;SDS011;2107;52.306;10.484;2024-02-16T08:44:09;0.43;;;0.43;;
4186;SDS011;2107;52.306;10.484;2024-02-16T08:46:36;0.40;;;0.40;;
4186;SDS011;2107;52.306;10.484;2024-02-16T08:49:03;0.40;;;0.40;;
4186;SDS011;2107;52.306;10.484;2024-02-16T08:51:31;0.40;;;0.40;;
4186;SDS011;2107;52.306;10.484;2024-02-16T08:53:58;0.30;;;0.30;;
4186;SDS011;2107;52.306;10.484;2024-02-16T08:56:26;0.30;;;0.30;;
4186;SDS011;2107;52.306;10.484;2024-02-16T08:58:53;0.30;;;0.30;;
4186;SDS011;2107;52.306;10.484;2024-02-16T09:01:29;0.50;;;0.50;;
4186;SDS011;2107;52.306;10.484;2024-02-16T09:03:56;0.30;;;0.30;;
4186;SDS011;2107;52.306;10.484;2024-02-16T09:06:23;0.30;;;0.30;;
4186;SDS011;2107;52.306;10.484;2024-02-16T09:08:50;0.40;;;0.40;;
4186;SDS011;2107;52.306;10.484;2024-02-16T09:11:18;0.30;;;0.30;;
4186;SDS011;2107;52.306;10.484;2024-02-16T09:13:46;0.50;;;0.50;;
4186;SDS011;2107;52.306;10.484;2024-02-16T09:16:14;0.40;;;0.40;;
4186;SDS011;2107;52.306;10.484;2024-02-16T09:18:40;0.30;;;0.30;;
4186;SDS011;2107;52.306;10.484;2024-02-16T09:21:07;0.30;;;0.30;;
4186;SDS011;2107;52.306;10.484;2024-02-16T09:23:35;0.50;;;0.50;;
4186;SDS011;2107;52.306;10.484;2024-02-16T09:26:03;0.30;;;0.30;;
4186;SDS011;2107;52.306;10.484;2024-02-16T09:28:30;0.40;;;0.40;;
4186;SDS011;2107;52.306;10.484;2024-02-16T09:30:59;0.47;;;0.47;;
4186;SDS011;2107;52.306;10.484;2024-02-16T09:33:25;0.30;;;0.30;;
4186;SDS011;2107;52.306;10.484;2024-02-16T09:35:53;0.40;;;0.40;;
4186;SDS011;2107;52.306;10.484;2024-02-16T09:38:20;0.50;;;0.50;;
4186;SDS011;2107;52.306;10.484;2024-02-16T09:40:47;0.30;;;0.30;;
4186;SDS011;2107;52.306;10.484;2024-02-16T09:43:23;0.30;;;0.30;;
4186;SDS011;2107;52.306;10.484;2024-02-16T09:45:52;0.30;;;0.30;;
4186;SDS011;2107;52.306;10.484;2024-02-16T09:48:25;0.30;;;0.30;;
4186;SDS011;2107;52.306;10.484;2024-02-16T09:50:53;0.30;;;0.30;;
4186;SDS011;2107;52.306;10.484;2024-02-16T09:53:21;0.33;;;0.33;;
4186;SDS011;2107;52.306;10.484;2024-02-16T09:55:51;0.50;;;0.50;;
4186;SDS011;2107;52.306;10.484;2024-02-16T09:58:19;0.40;;;0.40;;
4186;SDS011;2107;52.306;10.484;2024-02-16T10:00:50;0.40;;;0.40;;
4186;SDS011;2107;52.306;10.484;2024-02-16T10:03:21;0.30;;;0.30;;
4186;SDS011;2107;52.306;10.484;2024-02-16T10:05:50;0.40;;;0.40;;
4186;SDS011;2107;52.306;10.484;2024-02-16T10:08:18;0.30;;;0.30;;
4186;SDS011;2107;52.306;10.484;2024-02-16T10:10:44;0.30;;;0.30;;
4186;SDS011;2107;52.306;10.484;2024-02-16T10:13:12;0.30;;;0.30;;
4186;SDS011;2107;52.306;10.484;2024-02-16T10:15:38;0.40;;;0.40;;
4186;SDS011;2107;52.306;10.484;2024-02-16T10:18:05;0.50;;;0.50;;
4186;SDS011;2107;52.306;10.484;2024-02-16T10:20:35;0.40;;;0.40;;
4186;SDS011;2107;52.306;10.484;2024-02-16T10:23:08;0.30;;;0.30;;
4186;SDS011;2107;52.306;10.484;2024-02-16T10:25:36;0.30;;;0.30;;
4186;SDS011;2107;52.306;10.484;2024-02-16T10:28:04;0.30;;;0.30;;
4186;SDS011;2107;52.306;10.484;2024-02-16T10:30:34;0.30;;;0.30;;
4186;SDS011;2107;52.306;10.484;2024-02-16T10:33:04;0.30;;;0.30;;
4186;SDS011;2107;52.306;10.484;2024-02-16T10:35:33;0.20;;;0.20;;
4186;SDS011;2107;52.306;10.484;2024-02-16T10:38:01;0.20;;;0.20;;
4186;SDS011;2107;52.306;10.484;2024-02-16T10:40:32;0.30;;;0.30;;
4186;SDS011;2107;52.306;10.484;2024-02-16T10:43:00;0.30;;;0.30;;
4186;SDS011;2107;52.306;10.484;2024-02-16T10:45:31;0.30;;;0.30;;
4186;SDS011;2107;52.306;10.484;2024-02-16T10:48:00;0.30;;;0.30;;
4186;SDS011;2107;52.306;10.484;2024-02-16T10:50:27;0.40;;;0.40;;
4186;SDS011;2107;52.306;10.484;2024-02-16T10:52:56;0.30;;;0.30;;
4186;SDS011;2107;52.306;10.484;2024-02-16T10:55:26;0.20;;;0.20;;
4186;SDS011;2107;52.306;10.484;2024-02-16T10:57:53;0.30;;;0.30;;
4186;SDS011;2107;52.306;10.484;2024-02-16T11:00:24;0.30;;;0.30;;
4186;SDS011;2107;52.306;10.484;2024-02-16T11:02:52;0.20;;;0.20;;
4186;SDS011;2107;52.306;10.484;2024-02-16T11:05:31;0.30;;;0.30;;
4186;SDS011;2107;52.306;10.484;2024-02-16T11:08:01;0.30;;;0.30;;
4186;SDS011;2107;52.306;10.484;2024-02-16T11:10:28;0.30;;;0.30;;
4186;SDS011;2107;52.306;10.484;2024-02-16T11:12:59;0.30;;;0.30;;
4186;SDS011;2107;52.306;10.484;2024-02-16T11:15:28;0.30;;;0.30;;
4186;SDS011;2107;52.306;10.484;2024-02-16T11:17:57;0.30;;;0.30;;
4186;SDS011;2107;52.306;10.484;2024-02-16T11:20:26;0.33;;;0.33;;
4186;SDS011;2107;52.306;10.484;2024-02-16T11:22:53;0.30;;;0.30;;
4186;SDS011;2107;52.306;10.484;2024-02-16T11:25:31;0.30;;;0.30;;
4186;SDS011;2107;52.306;10.484;2024-02-16T11:27:58;0.37;;;0.37;;
4186;SDS011;2107;52.306;10.484;2024-02-16T11:30:25;0.30;;;0.30;;
4186;SDS011;2107;52.306;10.484;2024-02-16T11:32:52;0.30;;;0.30;;
4186;SDS011;2107;52.306;10.484;2024-02-16T11:35:19;0.50;;;0.50;;
4186;SDS011;2107;52.306;10.484;2024-02-16T11:37:46;0.60;;;0.60;;
4186;SDS011;2107;52.306;10.484;2024-02-16T11:40:13;0.40;;;0.40;;
4186;SDS011;2107;52.306;10.484;2024-02-16T11:42:41;0.40;;;0.40;;
4186;SDS011;2107;52.306;10.484;2024-02-16T11:45:11;0.40;;;0.40;;
4186;SDS011;2107;52.306;10.484;2024-02-16T11:47:39;0.50;;;0.50;;
4186;SDS011;2107;52.306;10.484;2024-02-16T11:50:06;0.30;;;0.30;;
4186;SDS011;2107;52.306;10.484;2024-02-16T11:52:36;0.40;;;0.40;;
4186;SDS011;2107;52.306;10.484;2024-02-16T11:55:04;0.30;;;0.30;;
4186;SDS011;2107;52.306;10.484;2024-02-16T11:57:34;0.40;;;0.40;;
4186;SDS011;2107;52.306;10.484;2024-02-16T12:00:03;0.40;;;0.40;;
4186;SDS011;2107;52.306;10.484;2024-02-16T12:02:34;0.40;;;0.40;;
4186;SDS011;2107;52.306;10.484;2024-02-16T12:05:01;0.30;;;0.30;;
4186;SDS011;2107;52.306;10.484;2024-02-16T12:07:29;0.30;;;0.30;;
4186;SDS011;2107;52.306;10.484;2024-02-16T12:09:58;0.30;;;0.30;;
4186;SDS011;2107;52.306;10.484;2024-02-16T12:12:26;0.40;;;0.40;;
4186;SDS011;2107;52.306;10.484;2024-02-16T12:14:54;0.40;;;0.40;;
4186;SDS011;2107;52.306;10.484;2024-02-16T12:17:22;0.30;;;0.30;;
4186;SDS011;2107;52.306;10.484;2024-02-16T12:19:49;0.30;;;0.30;;
4186;SDS011;2107;52.306;10.484;2024-02-16T12:22:17;0.40;;;0.40;;
4186;SDS011;2107;52.306;10.484;2024-02-16T12:24:44;0.40;;;0.40;;
4186;SDS011;2107;52.306;10.484;2024-02-16T12:27:11;0.60;;;0.60;;
4186;SDS011;2107;52.306;10.484;2024-02-16T12:29:38;0.30;;;0.30;;
4186;SDS011;2107;52.306;10.484;2024-02-16T12:32:05;0.60;;;0.60;;
4186;SDS011;2107;52.306;10.484;2024-02-16T12:34:35;0.60;;;0.60;;
4186;SDS011;2107;52.306;10.484;2024-02-16T12:37:04;0.50;;;0.50;;
4186;SDS011;2107;52.306;10.484;2024-02-16T12:39:33;0.50;;;0.50;;
4186;SDS011;2107;52.306;10.484;2024-02-16T12:42:00;0.40;;;0.40;;
4186;SDS011;2107;52.306;10.484;2024-02-16T12:44:27;0.40;;;0.40;;
4186;SDS011;2107;52.306;10.484;2024-02-16T12:46:55;0.40;;;0.40;;
4186;SDS011;2107;52.306;10.484;2024-02-16T12:49:22;0.50;;;0.50;;
4186;SDS011;2107;52.306;10.484;2024-02-16T12:51:51;0.50;;;0.50;;
4186;SDS011;2107;52.306;10.484;2024-02-16T12:54:19;0.30;;;0.30;;
4186;SDS011;2107;52.306;10.484;2024-02-16T12:56:47;0.50;;;0.50;;
4186;SDS011;2107;52.306;10.484;2024-02-16T12:59:14;0.40;;;0.40;;
4186;SDS011;2107;52.306;10.484;2024-02-16T13:01:41;0.70;;;0.70;;
4186;SDS011;2107;52.306;10.484;2024-02-16T13:04:09;0.60;;;0.60;;
4186;SDS011;2107;52.306;10.484;2024-02-16T13:06:35;0.70;;;0.70;;
4186;SDS011;2107;52.306;10.484;2024-02-16T13:09:04;0.50;;;0.50;;
4186;SDS011;2107;52.306;10.484;2024-02-16T13:11:33;0.50;;;0.50;;
4186;SDS011;2107;52.306;10.484;2024-02-16T13:14:00;0.67;;;0.67;;
4186;SDS011;2107;52.306;10.484;2024-02-16T13:16:27;0.70;;;0.70;;
4186;SDS011;2107;52.306;10.484;2024-02-16T13:18:54;0.70;;;0.70;;
4186;SDS011;2107;52.306;10.484;2024-02-16T13:21:20;0.60;;;0.60;;
4186;SDS011;2107;52.306;10.484;2024-02-16T13:23:47;0.60;;;0.60;;
4186;SDS011;2107;52.306;10.484;2024-02-16T13:26:19;0.60;;;0.60;;
4186;SDS011;2107;52.306;10.484;2024-02-16T13:28:46;0.50;;;0.50;;
4186;SDS011;2107;52.306;10.484;2024-02-16T13:31:13;0.50;;;0.50;;
4186;SDS011;2107;52.306;10.484;2024-02-16T13:33:40;0.70;;;0.70;;
4186;SDS011;2107;52.306;10.484;2024-02-16T13:36:07;0.60;;;0.60;;
4186;SDS011;2107;52.306;10.484;2024-02-16T13:38:34;0.40;;;0.40;;
4186;SDS011;2107;52.306;10.484;2024-02-16T13:41:01;0.60;;;0.60;;
4186;SDS011;2107;52.306;10.484;2024-02-16T13:43:31;0.50;;;0.50;;
4186;SDS011;2107;52.306;10.484;2024-02-16T13:45:58;0.93;;;0.93;;
4186;SDS011;2107;52.306;10.484;2024-02-16T13:48:25;0.80;;;0.80;;
4186;SDS011;2107;52.306;10.484;2024-02-16T13:50:53;0.60;;;0.60;;
4186;SDS011;2107;52.306;10.484;2024-02-16T13:53:21;0.60;;;0.60;;
4186;SDS011;2107;52.306;10.484;2024-02-16T13:55:48;0.80;;;0.80;;
4186;SDS011;2107;52.306;10.484;2024-02-16T13:58:15;0.80;;;0.80;;
4186;SDS011;2107;52.306;10.484;2024-02-16T14:00:44;0.70;;;0.70;;
4186;SDS011;2107;52.306;10.484;2024-02-16T14:03:12;0.60;;;0.60;;
4186;SDS011;2107;52.306;10.484;2024-02-16T14:05:40;0.60;;;0.60;;
4186;SDS011;2107;52.306;10.484;2024-02-16T14:08:10;0.70;;;0.70;;
4186;SDS011;2107;52.306;10.484;2024-02-16T14:10:37;1.00;;;1.00;;
4186;SDS011;2107;52.306;10.484;2024-02-16T14:13:04;2.10;;;2.10;;
4186;SDS011;2107;52.306;10.484;2024-02-16T14:15:31;1.90;;;1.90;;
4186;SDS011;2107;52.306;10.484;2024-02-16T14:18:00;2.00;;;2.00;;
4186;SDS011;2107;52.306;10.484;2024-02-16T14:20:27;1.70;;;1.70;;
4186;SDS011;2107;52.306;10.484;2024-02-16T14:22:54;1.40;;;1.40;;
4186;SDS011;2107;52.306;10.484;2024-02-16T14:25:22;1.10;;;1.10;;
4186;SDS011;2107;52.306;10.484;2024-02-16T14:27:50;0.50;;;0.50;;
4186;SDS011;2107;52.306;10.484;2024-02-16T14:30:17;0.57;;;0.57;;
4186;SDS011;2107;52.306;10.484;2024-02-16T14:32:44;0.60;;;0.60;;
4186;SDS011;2107;52.306;10.484;2024-02-16T14:35:12;0.40;;;0.40;;
4186;SDS011;2107;52.306;10.484;2024-02-16T14:37:39;0.60;;;0.60;;
4186;SDS011;2107;52.306;10.484;2024-02-16T14:40:06;0.50;;;0.50;;
4186;SDS011;2107;52.306;10.484;2024-02-16T14:42:36;0.30;;;0.30;;
4186;SDS011;2107;52.306;10.484;2024-02-16T14:45:04;0.30;;;0.30;;
4186;SDS011;2107;52.306;10.484;2024-02-16T14:47:34;0.40;;;0.40;;
4186;SDS011;2107;52.306;10.484;2024-02-16T14:50:01;0.30;;;0.30;;
4186;SDS011;2107;52.306;10.484;2024-02-16T14:52:31;0.20;;;0.20;;
4186;SDS011;2107;52.306;10.484;2024-02-16T14:54:58;0.20;;;0.20;;
4186;SDS011;2107;52.306;10.484;2024-02-16T14:57:25;0.20;;;0.20;;
4186;SDS011;2107;52.306;10.484;2024-02-16T14:59:53;0.20;;;0.20;;
4186;SDS011;2107;52.306;10.484;2024-02-16T15:02:23;0.20;;;0.20;;
4186;SDS011;2107;52.306;10.484;2024-02-16T15:04:50;0.20;;;0.20;;